sensor_id;sensor_type;location;lat;lon;timestamp;P1;durP1;ratioP1;P2;durP2;ratioP2
64244;SDS011;50584;29.058;-110.966;2023-03-30T00:02:26;3.95;;;0.90;;
64244;SDS011;50584;29.058;-110.966;2023-03-30T00:04:55;5.50;;;1.10;;
64244;SDS011;50584;29.058;-110.966;2023-03-30T00:07:21;11.95;;;1.40;;
64244;SDS011;50584;29.058;-110.966;2023-03-30T00:09:47;5.45;;;1.30;;
64244;SDS011;50584;29.058;-110.966;2023-03-30T00:12:13;12.98;;;1.88;;
64244;SDS011;50584;29.058;-110.966;2023-03-30T00:14:44;19.15;;;1.80;;
64244;SDS011;50584;29.058;-110.966;2023-03-30T00:17:10;4.60;;;1.30;;
64244;SDS011;50584;29.058;-110.966;2023-03-30T00:19:36;3.85;;;1.17;;
64244;SDS011;50584;29.058;-110.966;2023-03-30T00:22:05;7.40;;;1.27;;
64244;SDS011;50584;29.058;-110.966;2023-03-30T00:24:32;2.28;;;1.48;;
64244;SDS011;50584;29.058;-110.966;2023-03-30T00:26:57;9.63;;;1.25;;
64244;SDS011;50584;29.058;-110.966;2023-03-30T00:29:23;1.67;;;1.08;;
64244;SDS011;50584;29.058;-110.966;2023-03-30T00:31:49;9.15;;;1.20;;
64244;SDS011;50584;29.058;-110.966;2023-03-30T00:34:15;3.70;;;1.23;;
64244;SDS011;50584;29.058;-110.966;2023-03-30T00:36:41;10.88;;;1.40;;
64244;SDS011;50584;29.058;-110.966;2023-03-30T00:39:07;3.08;;;1.40;;
64244;SDS011;50584;29.058;-110.966;2023-03-30T00:41:33;4.20;;;1.10;;
64244;SDS011;50584;29.058;-110.966;2023-03-30T00:44:03;4.20;;;1.25;;
64244;SDS011;50584;29.058;-110.966;2023-03-30T00:46:30;3.05;;;1.52;;
64244;SDS011;50584;29.058;-110.966;2023-03-30T00:48:56;8.20;;;1.30;;
64244;SDS011;50584;29.058;-110.966;2023-03-30T00:51:23;9.02;;;1.35;;
64244;SDS011;50584;29.058;-110.966;2023-03-30T00:53:50;8.57;;;1.27;;
64244;SDS011;50584;29.058;-110.966;2023-03-30T00:56:18;8.73;;;1.15;;
64244;SDS011;50584;29.058;-110.966;2023-03-30T00:58:47;6.00;;;1.47;;
64244;SDS011;50584;29.058;-110.966;2023-03-30T01:01:14;2.92;;;1.52;;
64244;SDS011;50584;29.058;-110.966;2023-03-30T01:03:41;8.30;;;1.30;;
64244;SDS011;50584;29.058;-110.966;2023-03-30T01:06:09;9.25;;;1.58;;
64244;SDS011;50584;29.058;-110.966;2023-03-30T01:08:36;2.75;;;0.90;;
64244;SDS011;50584;29.058;-110.966;2023-03-30T01:11:03;8.98;;;1.10;;
64244;SDS011;50584;29.058;-110.966;2023-03-30T01:13:34;3.53;;;1.15;;
64244;SDS011;50584;29.058;-110.966;2023-03-30T01:24:17;2.13;;;1.48;;
64244;SDS011;50584;29.058;-110.966;2023-03-30T01:31:39;1.30;;;1.10;;
64244;SDS011;50584;29.058;-110.966;2023-03-30T01:34:34;5.78;;;1.30;;
64244;SDS011;50584;29.058;-110.966;2023-03-30T01:39:49;7.25;;;3.55;;
64244;SDS011;50584;29.058;-110.966;2023-03-30T01:42:18;4.28;;;2.60;;
64244;SDS011;50584;29.058;-110.966;2023-03-30T01:49:44;9.63;;;6.05;;
64244;SDS011;50584;29.058;-110.966;2023-03-30T01:54:47;7.72;;;1.77;;
64244;SDS011;50584;29.058;-110.966;2023-03-30T01:57:19;7.35;;;3.50;;
64244;SDS011;50584;29.058;-110.966;2023-03-30T02:02:11;7.30;;;3.63;;
64244;SDS011;50584;29.058;-110.966;2023-03-30T02:04:39;5.10;;;1.40;;
64244;SDS011;50584;29.058;-110.966;2023-03-30T02:07:11;8.18;;;2.17;;
64244;SDS011;50584;29.058;-110.966;2023-03-30T02:09:39;4.53;;;1.10;;
64244;SDS011;50584;29.058;-110.966;2023-03-30T02:12:06;2.85;;;2.30;;
64244;SDS011;50584;29.058;-110.966;2023-03-30T02:14:33;3.47;;;1.65;;
64244;SDS011;50584;29.058;-110.966;2023-03-30T02:19:36;8.80;;;2.08;;
64244;SDS011;50584;29.058;-110.966;2023-03-30T02:22:02;5.65;;;1.77;;
64244;SDS011;50584;29.058;-110.966;2023-03-30T02:24:30;6.35;;;1.33;;
64244;SDS011;50584;29.058;-110.966;2023-03-30T02:26:57;3.13;;;1.65;;
64244;SDS011;50584;29.058;-110.966;2023-03-30T02:29:23;3.78;;;2.03;;
64244;SDS011;50584;29.058;-110.966;2023-03-30T02:31:51;5.45;;;1.80;;
64244;SDS011;50584;29.058;-110.966;2023-03-30T02:34:22;3.40;;;1.60;;
64244;SDS011;50584;29.058;-110.966;2023-03-30T02:47:39;3.85;;;1.55;;
64244;SDS011;50584;29.058;-110.966;2023-03-30T02:50:10;5.75;;;1.33;;
64244;SDS011;50584;29.058;-110.966;2023-03-30T02:52:55;9.00;;;1.60;;
64244;SDS011;50584;29.058;-110.966;2023-03-30T03:00:28;4.53;;;1.67;;
64244;SDS011;50584;29.058;-110.966;2023-03-30T03:02:55;5.30;;;1.40;;
64244;SDS011;50584;29.058;-110.966;2023-03-30T03:05:23;2.70;;;1.60;;
64244;SDS011;50584;29.058;-110.966;2023-03-30T03:07:50;6.13;;;2.00;;
64244;SDS011;50584;29.058;-110.966;2023-03-30T03:10:16;5.75;;;1.73;;
64244;SDS011;50584;29.058;-110.966;2023-03-30T03:12:42;3.45;;;1.40;;
64244;SDS011;50584;29.058;-110.966;2023-03-30T03:15:09;3.83;;;1.55;;
64244;SDS011;50584;29.058;-110.966;2023-03-30T03:17:35;4.43;;;1.50;;
64244;SDS011;50584;29.058;-110.966;2023-03-30T03:20:01;1.55;;;1.13;;
64244;SDS011;50584;29.058;-110.966;2023-03-30T03:22:28;4.63;;;1.38;;
64244;SDS011;50584;29.058;-110.966;2023-03-30T03:24:54;8.57;;;1.50;;
64244;SDS011;50584;29.058;-110.966;2023-03-30T03:27:20;3.65;;;1.35;;
64244;SDS011;50584;29.058;-110.966;2023-03-30T03:29:46;9.23;;;1.60;;
64244;SDS011;50584;29.058;-110.966;2023-03-30T03:32:12;6.30;;;1.50;;
64244;SDS011;50584;29.058;-110.966;2023-03-30T03:34:37;7.00;;;1.73;;
64244;SDS011;50584;29.058;-110.966;2023-03-30T03:37:04;10.50;;;1.55;;
64244;SDS011;50584;29.058;-110.966;2023-03-30T03:39:29;1.83;;;1.40;;
64244;SDS011;50584;29.058;-110.966;2023-03-30T03:41:56;3.28;;;1.42;;
64244;SDS011;50584;29.058;-110.966;2023-03-30T03:44:21;4.72;;;2.05;;
64244;SDS011;50584;29.058;-110.966;2023-03-30T03:46:47;8.73;;;1.55;;
64244;SDS011;50584;29.058;-110.966;2023-03-30T03:49:13;8.15;;;1.70;;
64244;SDS011;50584;29.058;-110.966;2023-03-30T03:51:39;6.90;;;1.52;;
64244;SDS011;50584;29.058;-110.966;2023-03-30T03:54:04;6.82;;;2.08;;
64244;SDS011;50584;29.058;-110.966;2023-03-30T03:56:31;12.45;;;2.25;;
64244;SDS011;50584;29.058;-110.966;2023-03-30T03:58:57;4.40;;;2.40;;
64244;SDS011;50584;29.058;-110.966;2023-03-30T04:01:23;8.60;;;2.15;;
64244;SDS011;50584;29.058;-110.966;2023-03-30T04:03:48;6.65;;;2.08;;
64244;SDS011;50584;29.058;-110.966;2023-03-30T04:06:14;13.95;;;2.38;;
64244;SDS011;50584;29.058;-110.966;2023-03-30T04:08:40;10.77;;;2.20;;
64244;SDS011;50584;29.058;-110.966;2023-03-30T04:11:07;7.93;;;2.08;;
64244;SDS011;50584;29.058;-110.966;2023-03-30T04:13:34;9.25;;;2.10;;
64244;SDS011;50584;29.058;-110.966;2023-03-30T04:16:00;6.75;;;1.52;;
64244;SDS011;50584;29.058;-110.966;2023-03-30T04:18:26;3.78;;;2.80;;
64244;SDS011;50584;29.058;-110.966;2023-03-30T04:20:58;4.45;;;2.38;;
64244;SDS011;50584;29.058;-110.966;2023-03-30T04:23:27;3.00;;;2.17;;
64244;SDS011;50584;29.058;-110.966;2023-03-30T04:26:05;4.97;;;1.67;;
64244;SDS011;50584;29.058;-110.966;2023-03-30T04:28:32;3.78;;;1.73;;
64244;SDS011;50584;29.058;-110.966;2023-03-30T04:30:59;5.97;;;2.17;;
64244;SDS011;50584;29.058;-110.966;2023-03-30T04:33:25;9.00;;;2.50;;
64244;SDS011;50584;29.058;-110.966;2023-03-30T04:35:51;4.35;;;2.72;;
64244;SDS011;50584;29.058;-110.966;2023-03-30T04:38:17;4.22;;;1.50;;
64244;SDS011;50584;29.058;-110.966;2023-03-30T04:40:49;7.35;;;1.92;;
64244;SDS011;50584;29.058;-110.966;2023-03-30T04:43:15;3.90;;;1.27;;
64244;SDS011;50584;29.058;-110.966;2023-03-30T04:45:51;6.38;;;1.67;;
64244;SDS011;50584;29.058;-110.966;2023-03-30T04:48:17;5.10;;;2.67;;
64244;SDS011;50584;29.058;-110.966;2023-03-30T04:50:44;12.30;;;2.50;;
64244;SDS011;50584;29.058;-110.966;2023-03-30T04:53:10;5.93;;;2.95;;
64244;SDS011;50584;29.058;-110.966;2023-03-30T04:55:36;6.32;;;2.80;;
64244;SDS011;50584;29.058;-110.966;2023-03-30T04:58:02;16.35;;;3.20;;
64244;SDS011;50584;29.058;-110.966;2023-03-30T05:00:27;10.82;;;3.60;;
64244;SDS011;50584;29.058;-110.966;2023-03-30T05:02:53;10.20;;;3.33;;
64244;SDS011;50584;29.058;-110.966;2023-03-30T05:05:19;9.77;;;3.65;;
64244;SDS011;50584;29.058;-110.966;2023-03-30T05:07:45;16.52;;;4.40;;
64244;SDS011;50584;29.058;-110.966;2023-03-30T05:10:11;12.57;;;4.57;;
64244;SDS011;50584;29.058;-110.966;2023-03-30T05:12:37;13.88;;;3.97;;
64244;SDS011;50584;29.058;-110.966;2023-03-30T05:15:03;16.05;;;2.83;;
64244;SDS011;50584;29.058;-110.966;2023-03-30T05:17:32;9.57;;;2.97;;
64244;SDS011;50584;29.058;-110.966;2023-03-30T05:19:58;9.95;;;2.67;;
64244;SDS011;50584;29.058;-110.966;2023-03-30T05:22:24;10.25;;;2.15;;
64244;SDS011;50584;29.058;-110.966;2023-03-30T05:24:50;9.65;;;2.72;;
64244;SDS011;50584;29.058;-110.966;2023-03-30T05:27:19;7.93;;;2.30;;
64244;SDS011;50584;29.058;-110.966;2023-03-30T05:29:44;8.23;;;2.60;;
64244;SDS011;50584;29.058;-110.966;2023-03-30T05:32:10;6.07;;;2.10;;
64244;SDS011;50584;29.058;-110.966;2023-03-30T05:34:36;6.03;;;2.38;;
64244;SDS011;50584;29.058;-110.966;2023-03-30T05:37:02;4.22;;;2.22;;
64244;SDS011;50584;29.058;-110.966;2023-03-30T05:39:28;6.57;;;2.00;;
64244;SDS011;50584;29.058;-110.966;2023-03-30T05:41:53;8.48;;;2.00;;
64244;SDS011;50584;29.058;-110.966;2023-03-30T05:44:19;3.92;;;1.77;;
64244;SDS011;50584;29.058;-110.966;2023-03-30T05:46:45;5.38;;;1.70;;
64244;SDS011;50584;29.058;-110.966;2023-03-30T05:49:11;9.95;;;1.73;;
64244;SDS011;50584;29.058;-110.966;2023-03-30T05:51:36;2.60;;;1.65;;
64244;SDS011;50584;29.058;-110.966;2023-03-30T05:54:02;19.80;;;4.93;;
64244;SDS011;50584;29.058;-110.966;2023-03-30T05:56:28;13.77;;;5.20;;
64244;SDS011;50584;29.058;-110.966;2023-03-30T05:58:54;23.38;;;4.47;;
64244;SDS011;50584;29.058;-110.966;2023-03-30T06:01:20;12.32;;;4.25;;
64244;SDS011;50584;29.058;-110.966;2023-03-30T06:03:46;8.75;;;3.22;;
64244;SDS011;50584;29.058;-110.966;2023-03-30T06:06:12;15.43;;;3.22;;
64244;SDS011;50584;29.058;-110.966;2023-03-30T06:08:38;6.30;;;2.72;;
64244;SDS011;50584;29.058;-110.966;2023-03-30T06:11:04;11.02;;;2.47;;
64244;SDS011;50584;29.058;-110.966;2023-03-30T06:13:30;7.53;;;2.60;;
64244;SDS011;50584;29.058;-110.966;2023-03-30T06:15:57;11.55;;;2.90;;
64244;SDS011;50584;29.058;-110.966;2023-03-30T06:18:23;9.30;;;2.72;;
64244;SDS011;50584;29.058;-110.966;2023-03-30T06:20:49;2.92;;;2.50;;
64244;SDS011;50584;29.058;-110.966;2023-03-30T06:23:16;4.40;;;2.28;;
64244;SDS011;50584;29.058;-110.966;2023-03-30T06:25:48;2.70;;;2.20;;
64244;SDS011;50584;29.058;-110.966;2023-03-30T06:28:20;6.25;;;2.92;;
64244;SDS011;50584;29.058;-110.966;2023-03-30T06:30:46;7.50;;;3.38;;
64244;SDS011;50584;29.058;-110.966;2023-03-30T06:33:16;5.78;;;2.60;;
64244;SDS011;50584;29.058;-110.966;2023-03-30T06:35:43;13.82;;;3.00;;
64244;SDS011;50584;29.058;-110.966;2023-03-30T06:38:10;4.15;;;2.38;;
64244;SDS011;50584;29.058;-110.966;2023-03-30T06:40:36;5.72;;;2.33;;
64244;SDS011;50584;29.058;-110.966;2023-03-30T06:43:02;11.00;;;2.30;;
64244;SDS011;50584;29.058;-110.966;2023-03-30T06:45:28;3.70;;;2.28;;
64244;SDS011;50584;29.058;-110.966;2023-03-30T06:47:53;7.53;;;2.42;;
64244;SDS011;50584;29.058;-110.966;2023-03-30T06:50:20;6.50;;;3.13;;
64244;SDS011;50584;29.058;-110.966;2023-03-30T06:52:46;10.05;;;3.45;;
64244;SDS011;50584;29.058;-110.966;2023-03-30T06:55:12;9.93;;;2.92;;
64244;SDS011;50584;29.058;-110.966;2023-03-30T06:57:38;14.02;;;3.63;;
64244;SDS011;50584;29.058;-110.966;2023-03-30T07:00:05;9.25;;;3.63;;
64244;SDS011;50584;29.058;-110.966;2023-03-30T07:02:38;6.32;;;2.75;;
64244;SDS011;50584;29.058;-110.966;2023-03-30T07:05:04;8.70;;;2.17;;
64244;SDS011;50584;29.058;-110.966;2023-03-30T07:07:31;6.75;;;1.92;;
64244;SDS011;50584;29.058;-110.966;2023-03-30T07:09:57;8.70;;;1.98;;
64244;SDS011;50584;29.058;-110.966;2023-03-30T07:12:22;3.78;;;1.90;;
64244;SDS011;50584;29.058;-110.966;2023-03-30T07:14:48;6.53;;;1.95;;
64244;SDS011;50584;29.058;-110.966;2023-03-30T07:17:14;4.43;;;1.63;;
64244;SDS011;50584;29.058;-110.966;2023-03-30T07:19:40;7.30;;;2.08;;
64244;SDS011;50584;29.058;-110.966;2023-03-30T07:22:06;4.22;;;1.70;;
64244;SDS011;50584;29.058;-110.966;2023-03-30T07:24:32;3.70;;;1.52;;
64244;SDS011;50584;29.058;-110.966;2023-03-30T07:26:58;5.72;;;1.80;;
64244;SDS011;50584;29.058;-110.966;2023-03-30T07:29:24;1.88;;;1.40;;
64244;SDS011;50584;29.058;-110.966;2023-03-30T07:31:52;2.53;;;1.40;;
64244;SDS011;50584;29.058;-110.966;2023-03-30T07:34:20;1.63;;;1.13;;
64244;SDS011;50584;29.058;-110.966;2023-03-30T07:36:46;1.90;;;1.20;;
64244;SDS011;50584;29.058;-110.966;2023-03-30T07:39:13;6.00;;;1.20;;
64244;SDS011;50584;29.058;-110.966;2023-03-30T07:41:39;1.23;;;1.13;;
64244;SDS011;50584;29.058;-110.966;2023-03-30T07:44:05;2.50;;;0.95;;
64244;SDS011;50584;29.058;-110.966;2023-03-30T07:46:31;2.67;;;1.00;;
64244;SDS011;50584;29.058;-110.966;2023-03-30T07:48:57;4.22;;;1.25;;
64244;SDS011;50584;29.058;-110.966;2023-03-30T07:51:23;2.72;;;1.67;;
64244;SDS011;50584;29.058;-110.966;2023-03-30T07:53:48;5.07;;;1.00;;
64244;SDS011;50584;29.058;-110.966;2023-03-30T07:56:14;1.42;;;1.10;;
64244;SDS011;50584;29.058;-110.966;2023-03-30T07:58:40;3.67;;;1.00;;
64244;SDS011;50584;29.058;-110.966;2023-03-30T08:01:06;4.93;;;1.20;;
64244;SDS011;50584;29.058;-110.966;2023-03-30T08:03:32;2.95;;;1.80;;
64244;SDS011;50584;29.058;-110.966;2023-03-30T08:05:59;1.40;;;1.10;;
64244;SDS011;50584;29.058;-110.966;2023-03-30T08:08:28;4.05;;;1.05;;
64244;SDS011;50584;29.058;-110.966;2023-03-30T08:10:54;2.15;;;1.10;;
64244;SDS011;50584;29.058;-110.966;2023-03-30T08:13:20;3.00;;;1.60;;
64244;SDS011;50584;29.058;-110.966;2023-03-30T08:15:46;2.85;;;0.95;;
64244;SDS011;50584;29.058;-110.966;2023-03-30T08:18:12;0.98;;;0.88;;
64244;SDS011;50584;29.058;-110.966;2023-03-30T08:20:39;4.70;;;1.55;;
64244;SDS011;50584;29.058;-110.966;2023-03-30T08:23:05;3.38;;;1.48;;
64244;SDS011;50584;29.058;-110.966;2023-03-30T08:25:31;13.85;;;2.03;;
64244;SDS011;50584;29.058;-110.966;2023-03-30T08:27:57;7.32;;;2.10;;
64244;SDS011;50584;29.058;-110.966;2023-03-30T08:30:23;11.02;;;2.17;;
64244;SDS011;50584;29.058;-110.966;2023-03-30T08:32:49;8.52;;;2.40;;
64244;SDS011;50584;29.058;-110.966;2023-03-30T08:35:14;3.85;;;2.47;;
64244;SDS011;50584;29.058;-110.966;2023-03-30T08:37:41;12.07;;;2.50;;
64244;SDS011;50584;29.058;-110.966;2023-03-30T08:40:08;16.92;;;3.67;;
64244;SDS011;50584;29.058;-110.966;2023-03-30T08:45:01;14.10;;;4.60;;
64244;SDS011;50584;29.058;-110.966;2023-03-30T08:47:34;10.35;;;4.63;;
64244;SDS011;50584;29.058;-110.966;2023-03-30T08:52:30;14.52;;;3.50;;
64244;SDS011;50584;29.058;-110.966;2023-03-30T08:54:58;7.43;;;3.63;;
64244;SDS011;50584;29.058;-110.966;2023-03-30T09:00:20;5.28;;;3.17;;
64244;SDS011;50584;29.058;-110.966;2023-03-30T09:02:50;9.52;;;3.50;;
64244;SDS011;50584;29.058;-110.966;2023-03-30T09:07:50;11.13;;;3.40;;
64244;SDS011;50584;29.058;-110.966;2023-03-30T09:10:17;5.40;;;3.10;;
64244;SDS011;50584;29.058;-110.966;2023-03-30T09:12:47;8.10;;;3.13;;
64244;SDS011;50584;29.058;-110.966;2023-03-30T09:15:18;3.42;;;2.47;;
64244;SDS011;50584;29.058;-110.966;2023-03-30T09:18:08;5.85;;;2.95;;
64244;SDS011;50584;29.058;-110.966;2023-03-30T09:20:31;3.45;;;2.70;;
64244;SDS011;50584;29.058;-110.966;2023-03-30T09:22:59;5.28;;;2.40;;
64244;SDS011;50584;29.058;-110.966;2023-03-30T09:25:27;13.98;;;3.20;;
64244;SDS011;50584;29.058;-110.966;2023-03-30T09:30:42;7.75;;;2.28;;
64244;SDS011;50584;29.058;-110.966;2023-03-30T09:33:15;9.80;;;3.30;;
64244;SDS011;50584;29.058;-110.966;2023-03-30T09:35:50;17.75;;;3.33;;
64244;SDS011;50584;29.058;-110.966;2023-03-30T09:38:18;4.38;;;2.53;;
64244;SDS011;50584;29.058;-110.966;2023-03-30T09:40:50;4.80;;;2.50;;
64244;SDS011;50584;29.058;-110.966;2023-03-30T09:43:23;6.47;;;2.30;;
64244;SDS011;50584;29.058;-110.966;2023-03-30T09:45:52;8.82;;;2.58;;
64244;SDS011;50584;29.058;-110.966;2023-03-30T09:48:19;5.65;;;2.30;;
64244;SDS011;50584;29.058;-110.966;2023-03-30T09:50:45;8.77;;;2.20;;
64244;SDS011;50584;29.058;-110.966;2023-03-30T09:53:25;5.68;;;2.03;;
64244;SDS011;50584;29.058;-110.966;2023-03-30T09:55:58;6.13;;;2.17;;
64244;SDS011;50584;29.058;-110.966;2023-03-30T09:58:28;4.47;;;1.73;;
64244;SDS011;50584;29.058;-110.966;2023-03-30T10:01:08;2.88;;;1.98;;
64244;SDS011;50584;29.058;-110.966;2023-03-30T10:03:36;4.47;;;2.47;;
64244;SDS011;50584;29.058;-110.966;2023-03-30T10:08:28;6.28;;;2.20;;
64244;SDS011;50584;29.058;-110.966;2023-03-30T10:10:56;7.15;;;2.25;;
64244;SDS011;50584;29.058;-110.966;2023-03-30T10:13:35;3.53;;;1.70;;
64244;SDS011;50584;29.058;-110.966;2023-03-30T10:19:03;5.13;;;2.15;;
64244;SDS011;50584;29.058;-110.966;2023-03-30T10:21:36;15.10;;;2.50;;
64244;SDS011;50584;29.058;-110.966;2023-03-30T10:24:20;6.60;;;2.50;;
64244;SDS011;50584;29.058;-110.966;2023-03-30T10:26:48;10.60;;;2.42;;
64244;SDS011;50584;29.058;-110.966;2023-03-30T10:29:18;15.88;;;3.35;;
64244;SDS011;50584;29.058;-110.966;2023-03-30T10:31:47;4.43;;;2.60;;
64244;SDS011;50584;29.058;-110.966;2023-03-30T10:34:17;11.57;;;3.22;;
64244;SDS011;50584;29.058;-110.966;2023-03-30T10:36:45;4.38;;;2.92;;
64244;SDS011;50584;29.058;-110.966;2023-03-30T10:39:13;7.18;;;2.90;;
64244;SDS011;50584;29.058;-110.966;2023-03-30T10:41:42;11.30;;;3.13;;
64244;SDS011;50584;29.058;-110.966;2023-03-30T10:44:16;5.32;;;2.78;;
64244;SDS011;50584;29.058;-110.966;2023-03-30T10:46:43;6.97;;;2.50;;
64244;SDS011;50584;29.058;-110.966;2023-03-30T10:56:50;6.78;;;2.10;;
64244;SDS011;50584;29.058;-110.966;2023-03-30T10:59:24;8.32;;;2.30;;
64244;SDS011;50584;29.058;-110.966;2023-03-30T11:04:41;8.02;;;2.10;;
64244;SDS011;50584;29.058;-110.966;2023-03-30T11:07:12;7.10;;;1.92;;
64244;SDS011;50584;29.058;-110.966;2023-03-30T11:09:40;8.32;;;2.85;;
64244;SDS011;50584;29.058;-110.966;2023-03-30T11:12:12;6.85;;;3.17;;
64244;SDS011;50584;29.058;-110.966;2023-03-30T11:17:07;9.70;;;3.22;;
64244;SDS011;50584;29.058;-110.966;2023-03-30T11:19:37;9.52;;;3.17;;
64244;SDS011;50584;29.058;-110.966;2023-03-30T11:24:30;10.63;;;4.47;;
64244;SDS011;50584;29.058;-110.966;2023-03-30T11:27:13;13.20;;;4.38;;
64244;SDS011;50584;29.058;-110.966;2023-03-30T11:29:42;14.30;;;4.20;;
64244;SDS011;50584;29.058;-110.966;2023-03-30T11:37:28;12.38;;;3.90;;
64244;SDS011;50584;29.058;-110.966;2023-03-30T11:40:09;16.35;;;4.25;;
64244;SDS011;50584;29.058;-110.966;2023-03-30T11:42:38;12.48;;;4.20;;
64244;SDS011;50584;29.058;-110.966;2023-03-30T11:45:15;7.93;;;4.00;;
64244;SDS011;50584;29.058;-110.966;2023-03-30T11:50:27;12.30;;;4.00;;
64244;SDS011;50584;29.058;-110.966;2023-03-30T11:52:58;21.60;;;4.00;;
64244;SDS011;50584;29.058;-110.966;2023-03-30T11:55:29;14.95;;;3.78;;
64244;SDS011;50584;29.058;-110.966;2023-03-30T11:58:12;11.23;;;4.72;;
64244;SDS011;50584;29.058;-110.966;2023-03-30T12:05:52;18.63;;;4.97;;
64244;SDS011;50584;29.058;-110.966;2023-03-30T12:13:38;15.88;;;5.07;;
64244;SDS011;50584;29.058;-110.966;2023-03-30T12:16:06;12.98;;;5.88;;
64244;SDS011;50584;29.058;-110.966;2023-03-30T12:18:49;22.88;;;7.03;;
64244;SDS011;50584;29.058;-110.966;2023-03-30T12:21:24;24.55;;;6.15;;
64244;SDS011;50584;29.058;-110.966;2023-03-30T12:24:39;19.50;;;4.97;;
64244;SDS011;50584;29.058;-110.966;2023-03-30T12:26:38;13.73;;;4.55;;
64244;SDS011;50584;29.058;-110.966;2023-03-30T12:34:12;22.85;;;7.03;;
64244;SDS011;50584;29.058;-110.966;2023-03-30T12:36:41;20.08;;;6.30;;
64244;SDS011;50584;29.058;-110.966;2023-03-30T12:39:13;27.27;;;7.03;;
64244;SDS011;50584;29.058;-110.966;2023-03-30T12:41:42;15.20;;;6.20;;
64244;SDS011;50584;29.058;-110.966;2023-03-30T12:46:40;28.80;;;6.93;;
64244;SDS011;50584;29.058;-110.966;2023-03-30T12:51:41;17.92;;;5.85;;
64244;SDS011;50584;29.058;-110.966;2023-03-30T12:54:28;13.07;;;6.18;;
64244;SDS011;50584;29.058;-110.966;2023-03-30T12:56:59;13.23;;;5.28;;
64244;SDS011;50584;29.058;-110.966;2023-03-30T13:04:40;18.80;;;5.18;;
64244;SDS011;50584;29.058;-110.966;2023-03-30T13:07:19;16.17;;;4.78;;
64244;SDS011;50584;29.058;-110.966;2023-03-30T13:09:56;9.07;;;4.25;;
64244;SDS011;50584;29.058;-110.966;2023-03-30T13:14:55;7.30;;;4.43;;
64244;SDS011;50584;29.058;-110.966;2023-03-30T13:17:23;9.90;;;4.07;;
64244;SDS011;50584;29.058;-110.966;2023-03-30T13:20:12;11.75;;;4.50;;
64244;SDS011;50584;29.058;-110.966;2023-03-30T13:22:38;12.38;;;3.65;;
64244;SDS011;50584;29.058;-110.966;2023-03-30T13:27:45;12.27;;;3.58;;
64244;SDS011;50584;29.058;-110.966;2023-03-30T13:30:14;14.68;;;3.75;;
64244;SDS011;50584;29.058;-110.966;2023-03-30T13:51:24;48.13;;;19.42;;
64244;SDS011;50584;29.058;-110.966;2023-03-30T13:54:06;83.10;;;26.02;;
64244;SDS011;50584;29.058;-110.966;2023-03-30T13:56:36;203.10;;;69.38;;
64244;SDS011;50584;29.058;-110.966;2023-03-30T14:01:30;200.40;;;72.68;;
64244;SDS011;50584;29.058;-110.966;2023-03-30T14:03:57;81.22;;;24.67;;
64244;SDS011;50584;29.058;-110.966;2023-03-30T14:06:25;98.13;;;32.67;;
64244;SDS011;50584;29.058;-110.966;2023-03-30T14:09:24;55.72;;;20.35;;
64244;SDS011;50584;29.058;-110.966;2023-03-30T14:11:50;82.70;;;25.88;;
64244;SDS011;50584;29.058;-110.966;2023-03-30T14:14:24;58.42;;;18.38;;
64244;SDS011;50584;29.058;-110.966;2023-03-30T14:16:52;24.52;;;7.03;;
64244;SDS011;50584;29.058;-110.966;2023-03-30T14:22:16;32.72;;;9.70;;
64244;SDS011;50584;29.058;-110.966;2023-03-30T14:24:59;27.30;;;8.23;;
64244;SDS011;50584;29.058;-110.966;2023-03-30T14:27:31;37.33;;;8.77;;
64244;SDS011;50584;29.058;-110.966;2023-03-30T14:31:39;35.13;;;13.57;;
64244;SDS011;50584;29.058;-110.966;2023-03-30T14:34:25;60.70;;;14.57;;
64244;SDS011;50584;29.058;-110.966;2023-03-30T14:36:52;41.05;;;10.32;;
64244;SDS011;50584;29.058;-110.966;2023-03-30T14:39:20;28.40;;;7.85;;
64244;SDS011;50584;29.058;-110.966;2023-03-30T14:41:47;19.38;;;7.38;;
64244;SDS011;50584;29.058;-110.966;2023-03-30T14:44:13;23.90;;;7.40;;
64244;SDS011;50584;29.058;-110.966;2023-03-30T14:49:07;22.95;;;5.72;;
64244;SDS011;50584;29.058;-110.966;2023-03-30T14:51:35;18.08;;;6.43;;
64244;SDS011;50584;29.058;-110.966;2023-03-30T14:54:02;12.68;;;5.72;;
64244;SDS011;50584;29.058;-110.966;2023-03-30T14:56:28;15.90;;;7.30;;
64244;SDS011;50584;29.058;-110.966;2023-03-30T14:58:54;36.92;;;9.98;;
64244;SDS011;50584;29.058;-110.966;2023-03-30T15:01:23;23.38;;;6.30;;
64244;SDS011;50584;29.058;-110.966;2023-03-30T15:03:49;34.80;;;9.18;;
64244;SDS011;50584;29.058;-110.966;2023-03-30T15:06:19;21.88;;;4.85;;
64244;SDS011;50584;29.058;-110.966;2023-03-30T15:08:45;34.30;;;6.97;;
64244;SDS011;50584;29.058;-110.966;2023-03-30T15:11:13;13.68;;;5.20;;
64244;SDS011;50584;29.058;-110.966;2023-03-30T15:13:49;14.10;;;4.07;;
64244;SDS011;50584;29.058;-110.966;2023-03-30T15:16:26;28.00;;;7.53;;
64244;SDS011;50584;29.058;-110.966;2023-03-30T15:18:53;31.27;;;5.18;;
64244;SDS011;50584;29.058;-110.966;2023-03-30T15:21:21;25.90;;;5.80;;
64244;SDS011;50584;29.058;-110.966;2023-03-30T15:23:47;33.08;;;9.15;;
64244;SDS011;50584;29.058;-110.966;2023-03-30T15:26:14;28.73;;;8.05;;
64244;SDS011;50584;29.058;-110.966;2023-03-30T15:28:47;19.15;;;6.03;;
64244;SDS011;50584;29.058;-110.966;2023-03-30T15:31:15;23.25;;;7.15;;
64244;SDS011;50584;29.058;-110.966;2023-03-30T15:33:42;18.27;;;5.43;;
64244;SDS011;50584;29.058;-110.966;2023-03-30T15:36:12;17.63;;;4.95;;
64244;SDS011;50584;29.058;-110.966;2023-03-30T15:41:14;8.93;;;4.53;;
64244;SDS011;50584;29.058;-110.966;2023-03-30T15:43:53;13.07;;;4.40;;
64244;SDS011;50584;29.058;-110.966;2023-03-30T15:46:19;19.15;;;4.97;;
64244;SDS011;50584;29.058;-110.966;2023-03-30T15:48:47;15.52;;;3.67;;
64244;SDS011;50584;29.058;-110.966;2023-03-30T15:51:29;17.95;;;6.90;;
64244;SDS011;50584;29.058;-110.966;2023-03-30T15:54:02;12.15;;;4.30;;
64244;SDS011;50584;29.058;-110.966;2023-03-30T15:56:31;16.55;;;4.38;;
64244;SDS011;50584;29.058;-110.966;2023-03-30T15:58:58;8.15;;;3.60;;
64244;SDS011;50584;29.058;-110.966;2023-03-30T16:01:26;7.55;;;4.07;;
64244;SDS011;50584;29.058;-110.966;2023-03-30T16:03:53;13.45;;;4.10;;
64244;SDS011;50584;29.058;-110.966;2023-03-30T16:06:20;11.63;;;3.38;;
64244;SDS011;50584;29.058;-110.966;2023-03-30T16:08:45;7.88;;;3.75;;
64244;SDS011;50584;29.058;-110.966;2023-03-30T16:11:11;10.18;;;3.60;;
64244;SDS011;50584;29.058;-110.966;2023-03-30T16:13:41;14.32;;;4.40;;
64244;SDS011;50584;29.058;-110.966;2023-03-30T16:16:07;9.38;;;4.20;;
64244;SDS011;50584;29.058;-110.966;2023-03-30T16:18:33;17.92;;;4.25;;
64244;SDS011;50584;29.058;-110.966;2023-03-30T16:20:58;18.02;;;4.28;;
64244;SDS011;50584;29.058;-110.966;2023-03-30T16:23:25;15.20;;;4.50;;
64244;SDS011;50584;29.058;-110.966;2023-03-30T16:25:50;13.93;;;3.65;;
64244;SDS011;50584;29.058;-110.966;2023-03-30T16:28:16;18.02;;;4.45;;
64244;SDS011;50584;29.058;-110.966;2023-03-30T16:30:43;12.13;;;3.42;;
64244;SDS011;50584;29.058;-110.966;2023-03-30T16:33:10;11.85;;;3.72;;
64244;SDS011;50584;29.058;-110.966;2023-03-30T16:35:36;18.50;;;4.45;;
64244;SDS011;50584;29.058;-110.966;2023-03-30T16:38:02;13.02;;;3.95;;
64244;SDS011;50584;29.058;-110.966;2023-03-30T16:40:38;14.35;;;4.50;;